Alma, Mississippi
Current Conditions -  °F | °C
As of 4:53 AM on Monday 22 Dec 2014 (Local Time) from KTUP Reporting Station
Overcast Overcast  
Wind Chill: 50°   Ceiling: 700
Heat Index: 50°   Visibility: 9mi
Dew Point: 47°   Wind: 9mph
Humidity: 89%   Direction: 170°S
Pressure: 29.89"   Gusts: 16mph
Location:  34.433°N, 88.7018°W
Report Text: KTUP 221053Z AUTO 17008G14KT 9SM OVC007 10/08 A2989 RMK AO2 SLP120 T01000083
Loading
Personal Weather Stations






























Interactive Weather Map New forecast layout! Learn more

10-Day Weather Forecast

Advertisements
Track Severe Weather on mobile